createdAt,value
2023-03-21T00:02:18.674Z,18.40
2023-03-21T00:07:39.264Z,18.60
2023-03-21T00:10:16.722Z,18.60
2023-03-21T00:12:57.076Z,18.60
2023-03-21T00:18:25.330Z,18.50
2023-03-21T00:21:38.441Z,18.50
2023-03-21T00:23:58.606Z,18.50
2023-03-21T00:26:29.796Z,18.70
2023-03-21T00:29:01.930Z,18.70
2023-03-21T00:31:36.264Z,18.70
2023-03-21T00:34:07.371Z,18.80
2023-03-21T00:36:38.167Z,18.60
2023-03-21T00:39:08.568Z,18.60
2023-03-21T00:41:42.881Z,18.60
2023-03-21T00:44:17.763Z,18.50
2023-03-21T00:47:00.851Z,18.60
2023-03-21T00:49:36.953Z,18.50
2023-03-21T00:52:17.195Z,18.50
2023-03-21T00:54:50.677Z,18.50
2023-03-21T00:57:29.273Z,18.60
2023-03-21T01:00:10.603Z,18.60
2023-03-21T01:03:08.432Z,18.60
2023-03-21T01:06:07.834Z,18.70
2023-03-21T01:08:55.013Z,18.80
2023-03-21T01:11:28.906Z,19.00
2023-03-21T01:14:18.830Z,19.10
2023-03-21T01:16:52.889Z,19.20
2023-03-21T01:19:44.800Z,19.20
2023-03-21T01:22:19.376Z,19.30
2023-03-21T01:24:55.426Z,19.60
2023-03-21T01:27:28.719Z,19.80
2023-03-21T01:30:00.167Z,19.90
2023-03-21T01:32:30.481Z,20.00
2023-03-21T01:35:00.869Z,20.00
2023-03-21T01:37:31.144Z,19.90
2023-03-21T01:40:01.532Z,19.80
2023-03-21T01:42:33.743Z,19.70
2023-03-21T01:45:10.812Z,19.60
2023-03-21T01:47:41.129Z,19.60
2023-03-21T01:50:12.194Z,19.60
2023-03-21T01:52:43.541Z,19.50
2023-03-21T01:55:17.153Z,19.60
2023-03-21T01:58:05.792Z,19.60
2023-03-21T02:00:38.259Z,19.70
2023-03-21T02:03:23.553Z,19.60
2023-03-21T02:06:15.390Z,19.60
2023-03-21T02:08:45.654Z,19.50
2023-03-21T02:11:15.975Z,19.30
2023-03-21T02:13:46.816Z,19.30
2023-03-21T02:16:50.846Z,19.20
2023-03-21T02:19:35.671Z,19.20
2023-03-21T02:22:39.208Z,19.10
2023-03-21T02:25:31.382Z,19.10
2023-03-21T02:28:25.117Z,19.20
2023-03-21T02:30:56.030Z,19.30
2023-03-21T02:34:04.067Z,19.20
2023-03-21T02:36:52.972Z,19.20
2023-03-21T02:39:45.901Z,19.20
2023-03-21T02:42:24.548Z,19.20
2023-03-21T02:45:28.880Z,19.20
2023-03-21T02:48:26.836Z,19.10
2023-03-21T02:51:04.698Z,19.20
2023-03-21T02:53:40.394Z,19.20
2023-03-21T02:56:12.646Z,19.20
2023-03-21T02:58:44.748Z,19.20
2023-03-21T03:01:15.163Z,19.10
2023-03-21T03:03:45.586Z,18.90
2023-03-21T03:06:24.755Z,18.80
2023-03-21T03:09:16.204Z,18.80
2023-03-21T03:12:19.841Z,18.80
2023-03-21T03:15:19.551Z,18.80
2023-03-21T03:18:04.584Z,18.80
2023-03-21T03:20:53.167Z,18.80
2023-03-21T03:23:37.664Z,18.70
2023-03-21T03:26:10.440Z,18.70
2023-03-21T03:28:49.189Z,18.60
2023-03-21T03:31:34.624Z,18.60
2023-03-21T03:34:14.582Z,18.60
2023-03-21T03:36:49.238Z,18.60
2023-03-21T03:39:20.838Z,18.60
2023-03-21T03:42:18.463Z,18.50
2023-03-21T03:44:58.642Z,18.50
2023-03-21T03:47:57.033Z,18.40
2023-03-21T03:50:43.366Z,18.30
2023-03-21T03:53:29.756Z,18.30
2023-03-21T03:56:03.218Z,18.30
2023-03-21T03:58:44.842Z,18.20
2023-03-21T04:01:17.349Z,18.10
2023-03-21T04:04:06.980Z,18.10
2023-03-21T04:06:44.696Z,18.20
2023-03-21T04:09:20.992Z,18.20
2023-03-21T04:11:54.738Z,18.20
2023-03-21T04:14:28.733Z,18.30
2023-03-21T04:17:06.126Z,18.30
2023-03-21T04:19:36.407Z,18.40
2023-03-21T04:22:06.869Z,18.40
2023-03-21T04:24:39.171Z,18.50
2023-03-21T04:27:10.065Z,18.50
2023-03-21T04:29:41.104Z,18.60
2023-03-21T04:32:18.369Z,18.60
2023-03-21T04:34:51.641Z,18.60
2023-03-21T04:37:23.137Z,18.60
2023-03-21T04:39:54.515Z,18.60
2023-03-21T04:42:27.216Z,18.60
2023-03-21T04:44:57.520Z,18.60
2023-03-21T04:47:28.511Z,18.50
2023-03-21T04:50:02.356Z,18.50
2023-03-21T04:52:33.003Z,18.40
2023-03-21T04:55:04.234Z,18.40
2023-03-21T04:57:34.902Z,18.30
2023-03-21T05:00:09.263Z,18.30
2023-03-21T05:02:40.632Z,18.30
2023-03-21T05:05:13.312Z,18.20
2023-03-21T05:07:44.715Z,18.30
2023-03-21T05:10:16.290Z,18.30
2023-03-21T05:12:48.522Z,18.40
2023-03-21T05:15:18.813Z,18.40
2023-03-21T05:17:52.310Z,18.40
2023-03-21T05:20:23.023Z,18.40
2023-03-21T05:22:54.325Z,18.40
2023-03-21T05:25:37.069Z,18.40
2023-03-21T05:28:13.023Z,18.40
2023-03-21T05:30:44.206Z,18.40
2023-03-21T05:33:18.461Z,18.50
2023-03-21T05:35:53.019Z,18.50
2023-03-21T05:38:33.434Z,18.40
2023-03-21T05:41:04.040Z,18.40
2023-03-21T05:43:34.850Z,18.40
2023-03-21T05:46:05.276Z,18.40
2023-03-21T05:48:37.569Z,18.40
2023-03-21T05:51:16.258Z,18.30
2023-03-21T05:53:48.129Z,18.30
2023-03-21T05:56:18.696Z,18.30
2023-03-21T05:58:49.431Z,18.30
2023-03-21T06:01:20.491Z,18.30
2023-03-21T06:03:51.171Z,18.30
2023-03-21T06:06:21.872Z,18.30
2023-03-21T06:08:53.783Z,18.30
2023-03-21T06:11:42.337Z,18.30
2023-03-21T06:14:16.285Z,18.30
2023-03-21T06:16:48.170Z,18.20
2023-03-21T06:19:19.394Z,18.20
2023-03-21T06:21:52.006Z,18.10
2023-03-21T06:24:24.313Z,18.00
2023-03-21T06:26:54.584Z,17.90
2023-03-21T06:29:25.796Z,17.90
2023-03-21T06:31:58.074Z,17.90
2023-03-21T06:34:28.975Z,17.80
2023-03-21T06:37:00.250Z,17.80
2023-03-21T06:39:30.757Z,17.70
2023-03-21T06:42:01.385Z,17.70
2023-03-21T06:44:33.598Z,17.60
2023-03-21T06:47:04.086Z,17.50
2023-03-21T06:49:34.782Z,17.40
2023-03-21T06:52:05.226Z,17.30
2023-03-21T06:54:36.058Z,17.20
2023-03-21T06:57:07.407Z,17.10
2023-03-21T06:59:38.104Z,17.00
2023-03-21T07:02:08.889Z,16.90
2023-03-21T07:04:41.375Z,16.90
2023-03-21T07:07:12.029Z,16.80
2023-03-21T07:09:43.933Z,16.80
2023-03-21T07:12:14.276Z,16.70
2023-03-21T07:14:44.637Z,16.70
2023-03-21T07:17:14.929Z,16.70
2023-03-21T07:19:47.333Z,16.60
2023-03-21T07:22:19.805Z,16.60
2023-03-21T07:25:02.467Z,16.60
2023-03-21T07:27:35.275Z,16.50
2023-03-21T07:30:07.567Z,16.60
2023-03-21T07:32:39.587Z,16.60
2023-03-21T07:35:16.952Z,16.50
2023-03-21T07:37:47.888Z,16.50
2023-03-21T07:40:20.860Z,16.50
2023-03-21T07:42:56.497Z,16.50
2023-03-21T07:45:36.090Z,16.50
2023-03-21T07:48:27.395Z,16.40
2023-03-21T07:50:58.711Z,16.40
2023-03-21T07:53:29.010Z,16.40
2023-03-21T07:55:59.639Z,16.40
2023-03-21T07:58:30.789Z,16.40
2023-03-21T08:01:02.089Z,16.40
2023-03-21T08:03:34.903Z,16.40
2023-03-21T08:06:05.346Z,16.40
2023-03-21T08:08:36.157Z,16.40
2023-03-21T08:11:09.725Z,16.40
2023-03-21T08:13:42.066Z,16.40
2023-03-21T08:16:12.686Z,16.40
2023-03-21T08:18:44.418Z,16.40
2023-03-21T08:21:14.647Z,16.40
2023-03-21T08:23:44.946Z,16.30
2023-03-21T08:26:19.804Z,16.30
2023-03-21T08:28:50.065Z,16.30
2023-03-21T08:31:20.509Z,16.30
2023-03-21T08:33:56.438Z,16.30
2023-03-21T08:36:28.525Z,16.20
2023-03-21T08:39:07.002Z,16.20
2023-03-21T08:41:39.184Z,16.10
2023-03-21T08:44:10.149Z,16.10
2023-03-21T08:46:40.411Z,16.10
2023-03-21T08:49:11.103Z,16.00
2023-03-21T08:51:42.833Z,16.00
2023-03-21T08:54:24.271Z,16.10
2023-03-21T08:56:54.589Z,16.10
2023-03-21T08:59:24.825Z,16.00
2023-03-21T09:01:56.025Z,16.00
2023-03-21T09:04:28.166Z,15.90
2023-03-21T09:06:59.118Z,16.00
2023-03-21T09:09:33.169Z,15.90
2023-03-21T09:12:03.494Z,15.90
2023-03-21T09:14:36.473Z,15.90
2023-03-21T09:17:06.764Z,15.90
2023-03-21T09:19:38.051Z,15.80
2023-03-21T09:22:13.221Z,15.70
2023-03-21T09:24:44.255Z,15.70
2023-03-21T09:27:16.150Z,15.70
2023-03-21T09:29:46.716Z,15.70
2023-03-21T09:32:17.003Z,15.60
2023-03-21T09:34:47.621Z,15.60
2023-03-21T09:37:18.189Z,15.60
2023-03-21T09:39:48.789Z,15.60
2023-03-21T09:42:34.046Z,15.60
2023-03-21T09:45:27.940Z,15.60
2023-03-21T09:48:00.200Z,15.60
2023-03-21T09:50:35.185Z,15.60
2023-03-21T09:53:18.265Z,15.60
2023-03-21T09:55:49.960Z,15.60
2023-03-21T09:58:34.997Z,15.60
2023-03-21T10:01:28.870Z,15.60
2023-03-21T10:04:03.063Z,15.60
2023-03-21T10:06:34.927Z,15.50
2023-03-21T10:09:16.746Z,15.50
2023-03-21T10:12:10.899Z,15.60
2023-03-21T10:14:46.411Z,15.60
2023-03-21T10:17:40.442Z,15.50
2023-03-21T10:20:15.847Z,15.60
2023-03-21T10:22:49.720Z,15.60
2023-03-21T10:25:24.019Z,15.60
2023-03-21T10:27:55.824Z,15.60
2023-03-21T10:30:47.877Z,15.50
2023-03-21T10:33:23.264Z,15.60
2023-03-21T10:35:59.336Z,15.60
2023-03-21T10:38:34.916Z,15.60
2023-03-21T10:41:06.878Z,15.50
2023-03-21T10:43:41.708Z,15.50
2023-03-21T10:46:26.249Z,15.60
2023-03-21T10:48:57.733Z,15.50
2023-03-21T10:51:38.003Z,15.50
2023-03-21T10:54:13.857Z,15.50
2023-03-21T10:56:54.369Z,15.50
2023-03-21T10:59:25.569Z,15.40
2023-03-21T11:01:58.878Z,15.50
2023-03-21T11:04:32.592Z,15.40
2023-03-21T11:07:10.849Z,15.40
2023-03-21T11:09:53.622Z,15.40
2023-03-21T11:12:50.516Z,15.40
2023-03-21T11:15:43.183Z,15.40
2023-03-21T11:18:26.708Z,15.30
2023-03-21T11:21:06.928Z,15.30
2023-03-21T11:23:42.155Z,15.20
2023-03-21T11:26:18.839Z,15.20
2023-03-21T11:28:49.595Z,15.20
2023-03-21T11:31:20.331Z,15.10
2023-03-21T11:34:01.650Z,15.10
2023-03-21T11:36:40.524Z,15.10
2023-03-21T11:39:31.494Z,15.10
2023-03-21T11:42:02.721Z,15.10
2023-03-21T11:44:37.878Z,15.10
2023-03-21T11:47:11.607Z,15.10
2023-03-21T11:49:44.028Z,15.10
2023-03-21T11:52:35.260Z,15.20
2023-03-21T11:55:29.295Z,15.10
2023-03-21T11:58:34.663Z,15.20
2023-03-21T12:01:30.084Z,15.10
2023-03-21T12:04:44.639Z,15.10
2023-03-21T12:07:49.954Z,15.10
2023-03-21T12:10:50.050Z,15.10
2023-03-21T12:13:35.992Z,15.10
2023-03-21T12:16:15.169Z,15.00
2023-03-21T12:18:49.158Z,15.00
2023-03-21T12:21:47.176Z,15.00
2023-03-21T12:24:25.712Z,14.90
2023-03-21T12:27:27.487Z,14.90
2023-03-21T12:30:10.977Z,14.90
2023-03-21T12:33:15.538Z,14.90
2023-03-21T12:36:13.144Z,14.90
2023-03-21T12:38:46.462Z,14.90
2023-03-21T12:41:37.243Z,14.90
2023-03-21T12:44:13.058Z,14.80
2023-03-21T12:47:01.324Z,14.90
2023-03-21T12:49:34.642Z,14.90
2023-03-21T12:52:35.599Z,14.90
2023-03-21T12:55:25.249Z,14.90
2023-03-21T12:58:07.994Z,14.90
2023-03-21T13:00:48.233Z,14.90
2023-03-21T13:03:38.975Z,14.90
2023-03-21T13:06:14.032Z,14.90
2023-03-21T13:08:54.105Z,14.90
2023-03-21T13:11:28.055Z,14.90
2023-03-21T13:14:03.690Z,14.90
2023-03-21T13:16:40.444Z,14.90
2023-03-21T13:19:22.480Z,14.90
2023-03-21T13:22:09.047Z,14.90
2023-03-21T13:24:51.849Z,15.00
2023-03-21T13:27:36.333Z,15.00
2023-03-21T13:30:28.751Z,14.90
2023-03-21T13:33:13.913Z,14.90
2023-03-21T13:35:46.751Z,14.90
2023-03-21T13:38:42.052Z,14.90
2023-03-21T13:41:33.361Z,14.90
2023-03-21T13:44:07.178Z,14.90
2023-03-21T13:46:58.048Z,14.90
2023-03-21T13:49:37.631Z,14.90
2023-03-21T13:52:15.163Z,14.90
2023-03-21T13:54:57.278Z,14.90
2023-03-21T13:57:34.103Z,14.90
2023-03-21T14:00:21.103Z,14.90
2023-03-21T14:03:03.123Z,14.90
2023-03-21T14:05:40.699Z,15.00
2023-03-21T14:08:36.811Z,15.00
2023-03-21T14:11:12.632Z,14.90
2023-03-21T14:13:51.659Z,14.90
2023-03-21T14:16:26.030Z,14.90
2023-03-21T14:19:02.106Z,14.90
2023-03-21T14:21:35.591Z,14.90
2023-03-21T14:24:09.000Z,14.90
2023-03-21T14:26:51.839Z,14.90
2023-03-21T14:29:34.128Z,14.90
2023-03-21T14:32:15.780Z,15.00
2023-03-21T14:34:49.016Z,14.90
2023-03-21T14:37:35.873Z,14.90
2023-03-21T14:40:11.217Z,14.90
2023-03-21T14:42:41.992Z,14.90
2023-03-21T14:45:36.530Z,14.90
2023-03-21T14:48:16.242Z,14.90
2023-03-21T14:50:58.025Z,14.80
2023-03-21T14:53:33.983Z,14.80
2023-03-21T14:56:12.199Z,14.90
2023-03-21T14:58:45.137Z,14.90
2023-03-21T15:01:37.047Z,14.90
2023-03-21T15:04:10.144Z,14.90
2023-03-21T15:06:56.328Z,14.90
2023-03-21T15:09:32.862Z,14.90
2023-03-21T15:12:04.326Z,14.90
2023-03-21T15:14:40.053Z,14.90
2023-03-21T15:17:14.533Z,14.90
2023-03-21T15:19:45.863Z,14.90
2023-03-21T15:22:39.573Z,14.90
2023-03-21T15:25:14.997Z,14.90
2023-03-21T15:27:46.317Z,14.90
2023-03-21T15:30:32.744Z,14.90
2023-03-21T15:33:14.232Z,15.00
2023-03-21T15:35:57.170Z,15.00
2023-03-21T15:38:42.861Z,15.00
2023-03-21T15:41:25.206Z,15.00
2023-03-21T15:44:04.923Z,15.00
2023-03-21T15:46:47.800Z,15.10
2023-03-21T15:49:35.380Z,15.00
2023-03-21T15:52:18.406Z,15.00
2023-03-21T15:54:58.852Z,15.10
2023-03-21T15:57:34.847Z,15.10
2023-03-21T16:00:38.332Z,15.10
2023-03-21T16:03:38.344Z,15.10
2023-03-21T16:06:16.664Z,15.10
2023-03-21T16:08:48.328Z,15.10
2023-03-21T16:11:27.045Z,15.10
2023-03-21T16:14:00.185Z,15.00
2023-03-21T16:16:33.244Z,15.00
2023-03-21T16:19:04.949Z,15.00
2023-03-21T16:21:36.969Z,14.90
2023-03-21T16:24:11.076Z,14.90
2023-03-21T16:26:55.636Z,14.80
2023-03-21T16:29:29.806Z,14.70
2023-03-21T16:32:00.482Z,14.80
2023-03-21T16:34:31.382Z,14.80
2023-03-21T16:37:02.704Z,14.70
2023-03-21T16:39:34.290Z,14.70
2023-03-21T16:42:05.025Z,14.70
2023-03-21T16:44:37.809Z,14.70
2023-03-21T16:47:20.661Z,14.60
2023-03-21T16:49:51.999Z,14.60
2023-03-21T16:52:25.132Z,14.50
2023-03-21T16:54:57.037Z,14.50
2023-03-21T16:57:32.409Z,14.50
2023-03-21T17:00:04.268Z,14.60
2023-03-21T17:02:34.954Z,14.60
2023-03-21T17:05:06.078Z,14.60
2023-03-21T17:07:36.861Z,14.60
2023-03-21T17:10:13.374Z,14.60
2023-03-21T17:12:44.091Z,14.60
2023-03-21T17:15:16.027Z,14.60
2023-03-21T17:17:47.982Z,14.60
2023-03-21T17:20:40.314Z,14.60
2023-03-21T17:23:12.289Z,14.60
2023-03-21T17:25:43.034Z,14.60
2023-03-21T17:28:13.776Z,14.60
2023-03-21T17:30:45.017Z,14.60
2023-03-21T17:33:17.392Z,14.70
2023-03-21T17:35:48.143Z,14.70
2023-03-21T17:38:20.046Z,14.70
2023-03-21T17:40:50.757Z,14.70
2023-03-21T17:43:23.710Z,14.70
2023-03-21T17:45:54.718Z,14.70
2023-03-21T17:48:25.489Z,14.60
2023-03-21T17:50:56.312Z,14.60
2023-03-21T17:53:28.725Z,14.60
2023-03-21T17:55:59.724Z,14.60
2023-03-21T17:58:30.654Z,14.60
2023-03-21T18:01:01.534Z,14.60
2023-03-21T18:03:36.143Z,14.60
2023-03-21T18:06:07.708Z,14.60
2023-03-21T18:08:38.361Z,14.60
2023-03-21T18:11:09.327Z,14.60
2023-03-21T18:13:40.302Z,14.70
2023-03-21T18:16:14.779Z,14.70
2023-03-21T18:18:48.460Z,14.60
2023-03-21T18:21:20.510Z,14.70
2023-03-21T18:23:51.659Z,14.60
2023-03-21T18:26:27.420Z,14.70
2023-03-21T18:29:53.295Z,14.70
2023-03-21T18:32:04.548Z,14.60
2023-03-21T18:34:36.374Z,14.70
2023-03-21T18:37:08.103Z,14.70
2023-03-21T18:39:39.673Z,14.70
2023-03-21T18:42:16.633Z,14.80
2023-03-21T18:44:49.333Z,14.70
2023-03-21T18:47:21.481Z,14.70
2023-03-21T18:52:44.125Z,14.70
2023-03-21T18:55:17.079Z,14.80
2023-03-21T18:57:49.434Z,14.80
2023-03-21T19:00:24.018Z,14.80
2023-03-21T19:03:09.930Z,14.90
2023-03-21T19:06:07.970Z,14.90
2023-03-21T19:08:41.824Z,14.90
2023-03-21T19:11:13.024Z,14.90
2023-03-21T19:13:44.981Z,14.90
2023-03-21T19:16:18.511Z,14.90
2023-03-21T19:18:54.962Z,14.90
2023-03-21T19:21:27.394Z,14.90
2023-03-21T19:24:25.190Z,14.90
2023-03-21T19:26:50.150Z,14.80
2023-03-21T19:29:20.876Z,14.80
2023-03-21T19:31:53.936Z,14.80
2023-03-21T19:34:27.680Z,14.80
2023-03-21T19:36:59.492Z,14.80
2023-03-21T19:39:30.590Z,14.70
2023-03-21T19:42:15.069Z,14.70
2023-03-21T19:44:46.704Z,14.70
2023-03-21T19:47:18.542Z,14.60
2023-03-21T19:50:34.985Z,14.70
2023-03-21T19:52:42.015Z,14.70
2023-03-21T19:55:13.368Z,14.60
2023-03-21T19:57:44.023Z,14.60
2023-03-21T20:00:16.381Z,14.60
2023-03-21T20:02:50.062Z,14.60
2023-03-21T20:05:27.472Z,14.60
2023-03-21T20:07:59.604Z,14.50
2023-03-21T20:10:30.413Z,14.60
2023-03-21T20:13:01.244Z,14.60
2023-03-21T20:15:32.305Z,14.50
2023-03-21T20:18:04.056Z,14.50
2023-03-21T20:20:36.666Z,14.50
2023-03-21T20:23:08.480Z,14.50
2023-03-21T20:25:47.004Z,14.50
2023-03-21T20:28:25.787Z,14.50
2023-03-21T20:31:01.497Z,14.50
2023-03-21T20:33:32.773Z,14.50
2023-03-21T20:36:37.592Z,14.60
2023-03-21T20:38:58.380Z,14.60
2023-03-21T20:41:32.360Z,14.60
2023-03-21T20:44:48.108Z,14.60
2023-03-21T20:46:56.643Z,14.60
2023-03-21T20:49:28.437Z,14.70
2023-03-21T20:54:50.053Z,14.70
2023-03-21T20:57:22.063Z,14.80
2023-03-21T20:59:53.982Z,14.80
2023-03-21T21:02:25.088Z,14.80
2023-03-21T21:05:24.073Z,14.80
2023-03-21T21:07:49.010Z,14.80
2023-03-21T21:10:22.251Z,14.90
2023-03-21T21:12:53.385Z,14.90
2023-03-21T21:15:24.463Z,14.90
2023-03-21T21:18:07.395Z,14.90
2023-03-21T21:20:39.459Z,14.90
2023-03-21T21:23:10.808Z,14.90
2023-03-21T21:25:41.908Z,14.90
2023-03-21T21:28:14.062Z,15.00
2023-03-21T21:30:45.239Z,15.00
2023-03-21T21:33:23.029Z,15.10
2023-03-21T21:35:55.630Z,15.10
2023-03-21T21:38:36.043Z,15.20
2023-03-21T21:41:07.356Z,15.30
2023-03-21T21:43:42.316Z,15.40
2023-03-21T21:46:22.693Z,15.40
2023-03-21T21:48:56.069Z,15.40
2023-03-21T21:51:31.911Z,15.40
2023-03-21T21:54:07.270Z,15.50
2023-03-21T21:56:40.992Z,15.50
2023-03-21T21:59:15.339Z,15.50
2023-03-21T22:01:46.159Z,15.60
2023-03-21T22:04:21.384Z,15.60
2023-03-21T22:06:52.208Z,15.60
2023-03-21T22:09:26.515Z,15.70
2023-03-21T22:12:00.387Z,15.70
2023-03-21T22:14:32.400Z,15.70
2023-03-21T22:17:08.674Z,15.70
2023-03-21T22:19:40.302Z,15.80
2023-03-21T22:22:11.641Z,15.80
2023-03-21T22:24:42.339Z,15.90
2023-03-21T22:27:15.764Z,15.90
2023-03-21T22:29:46.790Z,16.00
2023-03-21T22:32:17.797Z,16.00
2023-03-21T22:34:49.024Z,16.10
2023-03-21T22:37:19.711Z,16.10
2023-03-21T22:39:50.480Z,16.20
2023-03-21T22:42:21.353Z,16.20
2023-03-21T22:44:52.010Z,16.30
2023-03-21T22:47:22.698Z,16.50
2023-03-21T22:49:59.191Z,16.50
2023-03-21T22:52:37.719Z,16.60
2023-03-21T22:55:11.730Z,16.60
2023-03-21T22:57:42.423Z,16.60
2023-03-21T23:00:15.756Z,16.60
2023-03-21T23:02:46.428Z,16.60
2023-03-21T23:05:17.626Z,16.70
2023-03-21T23:07:48.496Z,16.70
2023-03-21T23:10:20.728Z,16.80
2023-03-21T23:12:51.670Z,16.80
2023-03-21T23:15:22.382Z,16.90
2023-03-21T23:17:53.972Z,17.00
2023-03-21T23:20:24.741Z,17.00
2023-03-21T23:22:55.935Z,17.00
2023-03-21T23:25:29.998Z,17.00
2023-03-21T23:28:01.327Z,17.10
2023-03-21T23:30:32.770Z,17.10
2023-03-21T23:33:04.288Z,17.20
2023-03-21T23:35:39.186Z,17.30
2023-03-21T23:38:10.945Z,17.40
2023-03-21T23:40:44.762Z,17.50
2023-03-21T23:43:15.392Z,17.50
2023-03-21T23:45:47.315Z,17.60
2023-03-21T23:48:19.284Z,17.60
2023-03-21T23:50:49.997Z,17.70
2023-03-21T23:53:20.969Z,17.80
2023-03-21T23:55:54.364Z,17.90
2023-03-21T23:58:25.897Z,18.00
